createdAt,value
2022-08-18T00:01:32.992Z,101220.53
2022-08-18T00:04:03.756Z,101223.41
2022-08-18T00:06:43.416Z,101221.16
2022-08-18T00:09:10.814Z,101215.19
2022-08-18T00:11:42.061Z,101212.94
2022-08-18T00:14:21.582Z,101218.88
2022-08-18T00:16:51.664Z,101214.78
2022-08-18T00:19:18.128Z,101218.69
2022-08-18T00:21:44.604Z,101223.19
2022-08-18T00:24:11.215Z,101222.38
2022-08-18T00:26:37.795Z,101225.66
2022-08-18T00:29:04.430Z,101230.38
2022-08-18T00:31:31.478Z,101227.09
2022-08-18T00:33:58.020Z,101228.75
2022-08-18T00:36:24.588Z,101229.38
2022-08-18T00:38:51.003Z,101227.13
2022-08-18T00:41:18.059Z,101222.81
2022-08-18T00:43:51.162Z,101230.81
2022-08-18T00:46:20.495Z,101238.00
2022-08-18T00:48:48.889Z,101230.22
2022-08-18T00:51:24.531Z,101230.81
2022-08-18T00:54:05.537Z,101234.09
2022-08-18T00:56:38.483Z,101231.63
2022-08-18T00:59:26.999Z,101231.25
2022-08-18T01:01:57.175Z,101236.16
2022-08-18T01:04:34.530Z,101230.63
2022-08-18T01:07:07.054Z,101235.72
2022-08-18T01:09:33.430Z,101233.28
2022-08-18T01:11:59.843Z,101244.78
2022-08-18T01:14:27.342Z,101239.66
2022-08-18T01:17:12.545Z,101241.09
2022-08-18T01:20:06.039Z,101236.56
2022-08-18T01:22:47.674Z,101238.00
2022-08-18T01:25:34.165Z,101246.44
2022-08-18T01:28:03.077Z,101248.47
2022-08-18T01:30:31.543Z,101238.59
2022-08-18T01:32:59.002Z,101239.44
2022-08-18T01:35:27.193Z,101233.28
2022-08-18T01:37:54.222Z,101238.44
2022-08-18T01:41:24.960Z,101233.91
2022-08-18T01:43:10.297Z,101242.50
2022-08-18T01:45:36.753Z,101242.50
2022-08-18T01:48:04.939Z,101252.16
2022-08-18T01:50:35.225Z,101258.09
2022-08-18T01:53:05.587Z,101249.28
2022-08-18T01:55:37.388Z,101255.03
2022-08-18T01:58:05.453Z,101253.78
2022-08-18T02:00:32.328Z,101262.81
2022-08-18T02:03:02.608Z,101257.28
2022-08-18T02:05:48.440Z,101260.56
2022-08-18T02:08:15.505Z,101263.81
2022-08-18T02:10:42.679Z,101264.41
2022-08-18T02:13:09.679Z,101263.19
2022-08-18T02:15:36.122Z,101263.34
2022-08-18T02:18:02.485Z,101262.13
2022-08-18T02:20:29.120Z,101257.00
2022-08-18T02:22:55.763Z,101252.69
2022-08-18T02:25:22.953Z,101254.53
2022-08-18T02:27:49.471Z,101249.19
2022-08-18T02:30:18.413Z,101250.44
2022-08-18T02:32:45.120Z,101254.53
2022-08-18T02:35:12.261Z,101254.13
2022-08-18T02:37:42.468Z,101247.56
2022-08-18T02:40:11.192Z,101253.91
2022-08-18T02:42:42.278Z,101254.94
2022-08-18T02:45:09.707Z,101246.72
2022-08-18T02:47:36.428Z,101264.31
2022-08-18T02:50:02.927Z,101258.38
2022-08-18T02:52:32.720Z,101266.78
2022-08-18T02:55:03.455Z,101276.22
2022-08-18T02:57:31.300Z,101271.31
2022-08-18T02:59:57.702Z,101270.47
2022-08-18T03:02:26.247Z,101266.78
2022-08-18T03:04:52.704Z,101266.38
2022-08-18T03:07:19.107Z,101277.03
2022-08-18T03:09:45.512Z,101269.63
2022-08-18T03:12:11.935Z,101277.63
2022-08-18T03:14:39.871Z,101271.69
2022-08-18T03:17:08.715Z,101275.59
2022-08-18T03:19:35.211Z,101276.19
2022-08-18T03:22:02.974Z,101276.19
2022-08-18T03:24:31.833Z,101275.97
2022-08-18T03:26:59.316Z,101279.69
2022-08-18T03:29:31.161Z,101273.13
2022-08-18T03:31:58.918Z,101280.53
2022-08-18T03:34:25.306Z,101277.41
2022-08-18T03:36:51.867Z,101269.84
2022-08-18T03:39:19.359Z,101273.31
2022-08-18T03:41:58.667Z,101278.44
2022-08-18T03:44:31.934Z,101280.06
2022-08-18T03:47:00.325Z,101279.69
2022-08-18T03:49:27.179Z,101279.50
2022-08-18T03:51:53.670Z,101275.78
2022-08-18T03:54:20.189Z,101273.09
2022-08-18T03:56:48.102Z,101274.75
2022-08-18T03:59:20.529Z,101278.03
2022-08-18T04:01:48.855Z,101282.53
2022-08-18T04:04:19.083Z,101277.00
2022-08-18T04:06:50.306Z,101270.03
2022-08-18T04:09:17.883Z,101262.44
2022-08-18T04:11:44.693Z,101263.88
2022-08-18T04:14:14.467Z,101262.88
2022-08-18T04:16:41.950Z,101262.47
2022-08-18T04:19:09.995Z,101264.31
2022-08-18T04:21:39.467Z,101258.19
2022-08-18T04:24:07.756Z,101262.47
2022-08-18T04:26:43.883Z,101260.03
2022-08-18T04:29:11.088Z,101261.88
2022-08-18T04:31:38.135Z,101278.06
2022-08-18T04:34:05.173Z,101282.78
2022-08-18T04:36:34.578Z,101272.13
2022-08-18T04:39:02.399Z,101276.41
2022-08-18T04:41:29.455Z,101270.88
2022-08-18T04:43:58.722Z,101277.81
2022-08-18T04:46:27.152Z,101274.78
2022-08-18T04:48:58.994Z,101285.22
2022-08-18T04:52:38.310Z,101281.97
2022-08-18T04:54:15.998Z,101274.97
2022-08-18T04:56:42.458Z,101270.69
2022-08-18T04:59:11.696Z,101269.47
2022-08-18T05:01:45.864Z,101273.78
2022-08-18T05:04:14.173Z,101268.84
2022-08-18T05:06:43.355Z,101262.88
2022-08-18T05:09:11.383Z,101261.00
2022-08-18T05:11:38.564Z,101264.88
2022-08-18T05:14:07.726Z,101271.66
2022-08-18T05:16:48.235Z,101274.53
2022-08-18T05:19:19.717Z,101273.69
2022-08-18T05:21:50.675Z,101279.00
2022-08-18T05:24:18.899Z,101278.03
2022-08-18T05:26:45.703Z,101276.78
2022-08-18T05:29:19.131Z,101282.97
2022-08-18T05:31:47.262Z,101283.59
2022-08-18T05:34:13.857Z,101288.28
2022-08-18T05:36:49.377Z,101295.25
2022-08-18T05:39:23.985Z,101290.53
2022-08-18T05:42:01.269Z,101299.75
2022-08-18T05:44:30.503Z,101286.44
2022-08-18T05:47:04.683Z,101291.19
2022-08-18T05:49:31.410Z,101295.06
2022-08-18T05:52:01.928Z,101301.03
2022-08-18T05:54:56.846Z,101284.44
2022-08-18T05:57:27.923Z,101290.78
2022-08-18T05:59:55.274Z,101294.72
2022-08-18T06:02:40.735Z,101300.06
2022-08-18T06:05:15.099Z,101300.94
2022-08-18T06:07:53.393Z,101309.34
2022-08-18T06:10:20.403Z,101315.91
2022-08-18T06:12:51.185Z,101311.22
2022-08-18T06:15:32.304Z,101312.66
2022-08-18T06:18:28.300Z,101309.81
2022-08-18T06:21:14.136Z,101309.81
2022-08-18T06:24:06.313Z,101311.63
2022-08-18T06:27:03.365Z,101303.81
2022-08-18T06:29:57.955Z,101304.88
2022-08-18T06:32:36.605Z,101307.75
2022-08-18T06:35:27.883Z,101300.16
2022-08-18T06:38:24.488Z,101312.25
2022-08-18T06:41:08.900Z,101313.28
2022-08-18T06:44:11.149Z,101325.81
2022-08-18T06:46:42.364Z,101326.22
2022-08-18T06:49:14.336Z,101325.81
2022-08-18T06:51:41.419Z,101326.03
2022-08-18T06:54:26.801Z,101328.47
2022-08-18T06:56:54.809Z,101332.16
2022-08-18T06:59:33.223Z,101336.06
2022-08-18T07:02:22.627Z,101335.25
2022-08-18T07:05:08.007Z,101338.13
2022-08-18T07:07:50.854Z,101333.19
2022-08-18T07:10:17.224Z,101330.97
2022-08-18T07:12:44.000Z,101345.72
2022-08-18T07:15:13.133Z,101343.06
2022-08-18T07:17:42.873Z,101343.88
2022-08-18T07:20:25.041Z,101345.72
2022-08-18T07:22:53.373Z,101345.13
2022-08-18T07:25:24.639Z,101336.09
2022-08-18T07:27:52.851Z,101329.72
2022-08-18T07:30:19.426Z,101330.53
2022-08-18T07:32:54.880Z,101328.53
2022-08-18T07:35:30.975Z,101321.34
2022-08-18T07:38:40.822Z,101320.94
2022-08-18T07:41:09.020Z,101322.97
2022-08-18T07:43:53.508Z,101329.53
2022-08-18T07:46:44.835Z,101331.56
2022-08-18T07:49:22.181Z,101338.13
2022-08-18T07:52:44.212Z,101335.47
2022-08-18T07:55:19.750Z,101342.84
2022-08-18T07:58:06.456Z,101342.66
2022-08-18T08:00:58.125Z,101351.28
2022-08-18T08:03:49.991Z,101352.69
2022-08-18T08:07:00.594Z,101355.38
2022-08-18T08:09:51.930Z,101344.06
2022-08-18T08:12:34.477Z,101345.66
2022-08-18T08:15:12.073Z,101340.72
2022-08-18T08:18:02.034Z,101337.75
2022-08-18T08:20:39.716Z,101332.59
2022-08-18T08:23:18.425Z,101335.00
2022-08-18T08:26:02.945Z,101338.56
2022-08-18T08:28:55.681Z,101355.22
2022-08-18T08:31:37.201Z,101347.97
2022-08-18T08:34:27.514Z,101346.84
2022-08-18T08:37:03.221Z,101350.16
2022-08-18T08:39:45.282Z,101343.13
2022-08-18T08:42:38.653Z,101338.16
2022-08-18T08:45:15.940Z,101341.06
2022-08-18T08:47:52.817Z,101341.06
2022-08-18T08:50:24.760Z,101343.53
2022-08-18T08:53:07.318Z,101347.91
2022-08-18T08:55:37.079Z,101351.19
2022-08-18T08:58:19.223Z,101348.44
2022-08-18T09:00:47.603Z,101352.53
2022-08-18T09:03:43.275Z,101359.44
2022-08-18T09:06:20.411Z,101347.81
2022-08-18T09:09:20.776Z,101351.91
2022-08-18T09:12:32.775Z,101349.28
2022-08-18T09:15:35.545Z,101345.03
2022-08-18T09:18:48.451Z,101359.22
2022-08-18T09:21:40.215Z,101355.34
2022-08-18T09:24:20.436Z,101350.91
2022-08-18T09:26:53.136Z,101343.31
2022-08-18T09:29:48.583Z,101351.13
2022-08-18T09:32:18.588Z,101349.97
2022-08-18T09:35:06.734Z,101348.41
2022-08-18T09:37:45.560Z,101345.44
2022-08-18T09:41:01.818Z,101351.47
2022-08-18T09:46:59.722Z,101337.19
2022-08-18T09:52:24.485Z,101346.50
2022-08-18T09:55:16.619Z,101334.63
2022-08-18T09:57:44.650Z,101340.88
2022-08-18T10:00:12.852Z,101335.13
2022-08-18T10:02:40.257Z,101341.66
2022-08-18T10:05:15.927Z,101344.97
2022-08-18T10:08:07.110Z,101348.34
2022-08-18T10:11:09.270Z,101349.13
2022-08-18T10:13:49.387Z,101341.84
2022-08-18T10:16:46.178Z,101331.53
2022-08-18T10:19:41.184Z,101340.34
2022-08-18T10:22:10.644Z,101337.03
2022-08-18T10:25:09.235Z,101334.63
2022-08-18T10:27:55.006Z,101337.41
2022-08-18T10:30:34.518Z,101326.31
2022-08-18T10:33:17.182Z,101331.03
2022-08-18T10:35:55.767Z,101329.03
2022-08-18T10:38:31.053Z,101330.13
2022-08-18T10:41:15.625Z,101332.00
2022-08-18T10:43:55.532Z,101334.91
2022-08-18T10:46:39.610Z,101335.00
2022-08-18T10:49:14.980Z,101332.06
2022-08-18T10:52:21.465Z,101338.13
2022-08-18T10:55:17.497Z,101334.03
2022-08-18T10:58:09.740Z,101334.22
2022-08-18T11:00:51.529Z,101329.19
2022-08-18T11:03:55.806Z,101333.22
2022-08-18T11:06:25.751Z,101337.03
2022-08-18T11:08:57.506Z,101345.44
2022-08-18T11:11:33.036Z,101339.75
2022-08-18T11:14:09.871Z,101334.69
2022-08-18T11:16:56.221Z,101345.84
2022-08-18T11:19:23.550Z,101344.28
2022-08-18T11:21:52.640Z,101334.34
2022-08-18T11:24:27.482Z,101336.03
2022-08-18T11:27:09.856Z,101332.44
2022-08-18T11:29:42.626Z,101322.88
2022-08-18T11:32:14.922Z,101325.97
2022-08-18T11:34:53.194Z,101314.56
2022-08-18T11:37:53.308Z,101311.03
2022-08-18T11:43:09.901Z,101325.47
2022-08-18T11:45:44.143Z,101314.97
2022-08-18T11:48:29.792Z,101311.59
2022-08-18T11:51:22.728Z,101304.31
2022-08-18T11:53:59.779Z,101316.91
2022-08-18T11:56:31.018Z,101312.97
2022-08-18T11:59:05.304Z,101304.78
2022-08-18T12:01:41.878Z,101298.22
2022-08-18T12:04:28.997Z,101295.28
2022-08-18T12:06:55.486Z,101293.63
2022-08-18T12:10:15.379Z,101281.41
2022-08-18T12:12:32.129Z,101279.75
2022-08-18T12:17:49.903Z,101278.84
2022-08-18T12:20:20.633Z,101277.81
2022-08-18T12:22:49.497Z,101283.84
2022-08-18T12:25:25.205Z,101289.13
2022-08-18T12:27:53.857Z,101296.81
2022-08-18T12:30:20.267Z,101286.94
2022-08-18T12:32:49.337Z,101291.97
2022-08-18T12:35:16.837Z,101290.84
2022-08-18T12:38:12.544Z,101293.41
2022-08-18T12:40:35.323Z,101288.53
2022-08-18T12:43:01.819Z,101276.13
2022-08-18T12:45:28.942Z,101271.22
2022-08-18T12:47:55.492Z,101275.69
2022-08-18T12:50:31.432Z,101284.47
2022-08-18T12:53:00.836Z,101283.09
2022-08-18T12:55:31.287Z,101291.38
2022-08-18T12:57:58.557Z,101285.94
2022-08-18T13:00:27.868Z,101283.94
2022-08-18T13:02:55.687Z,101286.91
2022-08-18T13:05:26.445Z,101298.59
2022-08-18T13:08:04.318Z,101301.63
2022-08-18T13:10:43.176Z,101304.81
2022-08-18T13:13:12.972Z,101310.75
2022-08-18T13:15:39.441Z,101305.28
2022-08-18T13:18:28.592Z,101318.47
2022-08-18T13:20:56.983Z,101321.22
2022-08-18T13:23:25.056Z,101319.44
2022-08-18T13:25:52.138Z,101317.56
2022-08-18T13:28:30.223Z,101328.16
2022-08-18T13:30:57.100Z,101328.78
2022-08-18T13:33:55.966Z,101328.44
2022-08-18T13:36:10.118Z,101338.25
2022-08-18T13:38:36.524Z,101337.44
2022-08-18T13:41:08.427Z,101333.53
2022-08-18T13:43:39.231Z,101329.34
2022-08-18T13:46:07.280Z,101326.16
2022-08-18T13:48:35.712Z,101327.81
2022-08-18T13:51:04.087Z,101331.53
2022-08-18T13:53:31.487Z,101329.38
2022-08-18T13:55:58.173Z,101332.50
2022-08-18T13:58:26.330Z,101326.16
2022-08-18T14:01:22.664Z,101328.91
2022-08-18T14:03:47.235Z,101322.81
2022-08-18T14:06:15.638Z,101306.13
2022-08-18T14:08:49.472Z,101304.25
2022-08-18T14:11:17.137Z,101305.50
2022-08-18T14:13:44.365Z,101300.88
2022-08-18T14:16:18.973Z,101297.50
2022-08-18T14:19:09.905Z,101293.13
2022-08-18T14:22:00.829Z,101290.44
2022-08-18T14:24:49.099Z,101286.56
2022-08-18T14:27:17.165Z,101291.63
2022-08-18T14:29:47.814Z,101283.56
2022-08-18T14:32:22.024Z,101284.66
2022-08-18T14:35:34.005Z,101275.19
2022-08-18T14:37:47.017Z,101280.34
2022-08-18T14:40:15.177Z,101272.22
2022-08-18T14:42:55.038Z,101259.78
2022-08-18T14:45:31.251Z,101259.69
2022-08-18T14:48:06.472Z,101268.97
2022-08-18T14:50:35.275Z,101267.69
2022-08-18T14:53:02.043Z,101266.59
2022-08-18T14:55:28.434Z,101261.97
2022-08-18T14:57:56.869Z,101269.28
2022-08-18T15:00:26.587Z,101271.13
2022-08-18T15:02:54.054Z,101268.16
2022-08-18T15:05:24.138Z,101267.91
2022-08-18T15:07:52.466Z,101272.00
2022-08-18T15:10:23.460Z,101264.97
2022-08-18T15:12:54.363Z,101259.19
2022-08-18T15:15:22.397Z,101249.94
2022-08-18T15:17:52.466Z,101243.88
2022-08-18T15:20:28.916Z,101240.28
2022-08-18T15:23:25.051Z,101245.69
2022-08-18T15:25:56.503Z,101238.53
2022-08-18T15:28:26.242Z,101245.75
2022-08-18T15:31:16.484Z,101249.00
2022-08-18T15:33:39.701Z,101247.66
2022-08-18T15:36:09.961Z,101249.13
2022-08-18T15:38:37.341Z,101250.44
2022-08-18T15:41:06.168Z,101256.84
2022-08-18T15:43:35.774Z,101251.28
2022-08-18T15:46:12.534Z,101246.63
2022-08-18T15:48:43.223Z,101251.44
2022-08-18T15:51:12.164Z,101255.81
2022-08-18T15:53:44.877Z,101253.41
2022-08-18T15:56:14.833Z,101246.97
2022-08-18T15:58:41.264Z,101245.13
2022-08-18T16:01:29.920Z,101246.59
2022-08-18T16:03:56.938Z,101249.88
2022-08-18T16:06:27.581Z,101247.28
2022-08-18T16:08:54.430Z,101243.28
2022-08-18T16:11:28.936Z,101246.72
2022-08-18T16:13:58.698Z,101249.13
2022-08-18T16:16:33.285Z,101242.25
2022-08-18T16:19:04.119Z,101250.03
2022-08-18T16:21:30.580Z,101251.59
2022-08-18T16:23:56.947Z,101256.13
2022-08-18T16:26:23.368Z,101256.34
2022-08-18T16:28:52.387Z,101254.94
2022-08-18T16:31:24.950Z,101263.53
2022-08-18T16:33:54.023Z,101254.56
2022-08-18T16:36:22.219Z,101250.97
2022-08-18T16:38:48.568Z,101252.16
2022-08-18T16:41:20.976Z,101253.72
2022-08-18T16:43:48.388Z,101255.78
2022-08-18T16:46:23.341Z,101255.25
2022-08-18T16:48:50.308Z,101249.22
2022-08-18T16:51:19.768Z,101253.81
2022-08-18T16:53:47.487Z,101248.41
2022-08-18T16:56:14.694Z,101256.50
2022-08-18T16:58:59.889Z,101246.28
2022-08-18T17:01:48.590Z,101248.16
2022-08-18T17:04:22.402Z,101248.97
2022-08-18T17:06:49.932Z,101252.44
2022-08-18T17:09:18.743Z,101242.53
2022-08-18T17:11:50.479Z,101247.09
2022-08-18T17:14:23.134Z,101245.22
2022-08-18T17:16:54.391Z,101242.22
2022-08-18T17:19:23.305Z,101244.03
2022-08-18T17:21:49.714Z,101241.22
2022-08-18T17:24:18.631Z,101244.03
2022-08-18T17:27:26.400Z,101248.28
2022-08-18T17:30:08.638Z,101245.69
2022-08-18T17:32:46.579Z,101250.41
2022-08-18T17:35:20.930Z,101244.97
2022-08-18T17:38:07.095Z,101247.78
2022-08-18T17:40:49.856Z,101241.22
2022-08-18T17:43:19.072Z,101236.28
2022-08-18T17:45:53.243Z,101234.53
2022-08-18T17:48:44.452Z,101234.16
2022-08-18T17:51:33.767Z,101241.56
2022-08-18T17:54:41.871Z,101230.34
2022-08-18T17:57:12.963Z,101232.59
2022-08-18T18:00:01.226Z,101242.72
2022-08-18T18:02:31.279Z,101241.50
2022-08-18T18:04:59.534Z,101248.88
2022-08-18T18:07:32.658Z,101240.97
2022-08-18T18:10:04.262Z,101246.25
2022-08-18T18:12:33.466Z,101248.28
2022-08-18T18:15:02.284Z,101242.22
2022-08-18T18:17:37.731Z,101241.91
2022-08-18T18:20:34.392Z,101239.94
2022-08-18T18:23:31.466Z,101237.38
2022-08-18T18:25:58.246Z,101234.72
2022-08-18T18:28:34.290Z,101234.72
2022-08-18T18:31:25.488Z,101225.78
2022-08-18T18:34:00.292Z,101228.78
2022-08-18T18:36:45.946Z,101226.41
2022-08-18T18:39:33.013Z,101221.38
2022-08-18T18:42:25.168Z,101223.41
2022-08-18T18:44:54.761Z,101229.94
2022-08-18T18:47:30.414Z,101225.41
2022-08-18T18:50:07.002Z,101228.31
2022-08-18T18:52:48.979Z,101231.94
2022-08-18T18:55:23.175Z,101231.00
2022-08-18T18:57:59.639Z,101238.09
2022-08-18T19:00:41.926Z,101233.56
2022-08-18T19:03:15.863Z,101227.84
2022-08-18T19:06:19.007Z,101230.03
2022-08-18T19:09:04.145Z,101233.16
2022-08-18T19:12:03.434Z,101235.47
2022-08-18T19:14:34.494Z,101246.06
2022-08-18T19:17:09.856Z,101250.69
2022-08-18T19:19:44.295Z,101248.31
2022-08-18T19:22:40.152Z,101250.88
2022-08-18T19:25:25.128Z,101260.41
2022-08-18T19:28:19.893Z,101254.91
2022-08-18T19:30:48.836Z,101258.81
2022-08-18T19:33:24.738Z,101255.19
2022-08-18T19:36:01.706Z,101259.19
2022-08-18T19:38:33.927Z,101262.28
2022-08-18T19:41:11.064Z,101266.56
2022-08-18T19:44:04.606Z,101262.28
2022-08-18T19:46:37.923Z,101255.00
2022-08-18T19:49:22.314Z,101257.16
2022-08-18T19:51:53.897Z,101256.84
2022-08-18T19:54:35.348Z,101257.75
2022-08-18T19:57:12.524Z,101263.75
2022-08-18T19:59:54.368Z,101257.06
2022-08-18T20:02:44.636Z,101257.31
2022-08-18T20:05:11.098Z,101261.06
2022-08-18T20:07:49.886Z,101265.81
2022-08-18T20:10:40.271Z,101262.53
2022-08-18T20:13:35.210Z,101260.28
2022-08-18T20:16:10.807Z,101261.16
2022-08-18T20:18:43.131Z,101259.13
2022-08-18T20:21:15.631Z,101256.31
2022-08-18T20:24:04.906Z,101251.16
2022-08-18T20:26:40.546Z,101258.41
2022-08-18T20:29:33.009Z,101265.69
2022-08-18T20:32:03.243Z,101271.84
2022-08-18T20:34:31.696Z,101275.78
2022-08-18T20:37:01.296Z,101280.31
2022-08-18T20:39:42.559Z,101264.91
2022-08-18T20:42:20.850Z,101275.25
2022-08-18T20:44:50.315Z,101271.78
2022-08-18T20:47:35.583Z,101278.38
2022-08-18T20:50:07.850Z,101271.44
2022-08-18T20:53:09.791Z,101281.72
2022-08-18T20:55:56.548Z,101277.00
2022-08-18T20:58:32.515Z,101265.75
2022-08-18T21:01:01.459Z,101273.16
2022-08-18T21:03:44.567Z,101266.59
2022-08-18T21:06:13.794Z,101269.28
2022-08-18T21:08:48.160Z,101264.56
2022-08-18T21:11:29.809Z,101267.66
2022-08-18T21:14:03.756Z,101272.59
2022-08-18T21:16:44.953Z,101270.13
2022-08-18T21:19:23.411Z,101272.78
2022-08-18T21:21:56.843Z,101271.38
2022-08-18T21:24:39.178Z,101274.66
2022-08-18T21:27:26.185Z,101271.81
2022-08-18T21:29:56.475Z,101279.81
2022-08-18T21:32:32.840Z,101281.88
2022-08-18T21:35:08.023Z,101283.53
2022-08-18T21:37:40.911Z,101282.09
2022-08-18T21:40:07.950Z,101288.06
2022-08-18T21:42:37.288Z,101292.38
2022-08-18T21:45:03.995Z,101294.66
2022-08-18T21:47:33.472Z,101296.50
2022-08-18T21:50:02.421Z,101295.25
2022-08-18T21:52:30.958Z,101303.47
2022-08-18T21:55:03.430Z,101308.34
2022-08-18T21:57:49.918Z,101306.53
2022-08-18T22:00:24.186Z,101307.53
2022-08-18T22:03:08.763Z,101304.25
2022-08-18T22:05:55.877Z,101303.25
2022-08-18T22:08:28.655Z,101302.00
2022-08-18T22:11:59.955Z,101299.13
2022-08-18T22:14:54.941Z,101296.28
2022-08-18T22:17:30.407Z,101299.16
2022-08-18T22:20:35.098Z,101296.06
2022-08-18T22:23:58.698Z,101302.22
2022-08-18T22:26:43.363Z,101296.28
2022-08-18T22:29:09.689Z,101299.53
2022-08-18T22:31:45.931Z,101302.19
2022-08-18T22:34:17.466Z,101301.59
2022-08-18T22:36:59.929Z,101306.91
2022-08-18T22:39:35.495Z,101318.19
2022-08-18T22:42:03.444Z,101315.69
2022-08-18T22:44:30.236Z,101310.59
2022-08-18T22:46:56.643Z,101308.50
2022-08-18T22:49:24.222Z,101304.41
2022-08-18T22:51:52.737Z,101305.66
2022-08-18T22:54:20.188Z,101315.03
2022-08-18T22:56:56.721Z,101306.03
2022-08-18T22:59:25.418Z,101314.44
2022-08-18T23:01:54.579Z,101312.41
2022-08-18T23:04:22.978Z,101301.94
2022-08-18T23:06:53.472Z,101306.84
2022-08-18T23:09:32.211Z,101311.53
2022-08-18T23:12:02.710Z,101321.97
2022-08-18T23:14:32.821Z,101311.47
2022-08-18T23:17:05.141Z,101315.19
2022-08-18T23:19:32.530Z,101310.03
2022-08-18T23:22:00.300Z,101319.84
2022-08-18T23:24:27.366Z,101315.56
2022-08-18T23:26:54.355Z,101313.50
2022-08-18T23:29:23.339Z,101312.47
2022-08-18T23:31:51.552Z,101305.50
2022-08-18T23:34:18.990Z,101306.69
2022-08-18T23:36:51.265Z,101304.84
2022-08-18T23:39:17.960Z,101302.97
2022-08-18T23:41:44.331Z,101308.47
2022-08-18T23:44:11.344Z,101306.19
2022-08-18T23:46:37.779Z,101306.59
2022-08-18T23:49:05.133Z,101301.91
2022-08-18T23:51:44.043Z,101307.84
2022-08-18T23:54:13.379Z,101304.75
2022-08-18T23:56:39.798Z,101314.16
2022-08-18T23:59:07.775Z,101311.06
